女満別空港の過去48時間の天気

女満別空港 (Memanbetsu)

現在時刻: 5/21 14:36 JST (5/21 05:36 UTC) 以下の時間は現地時間です。

過去48時間のMETAR気象情報
時間 風向 風速(m/s) 視程 気温(℃) 湿度(%) 気圧(hPa) 天気現象
21 14:00 12 10km以上 20 60 1002 弱いしゅう雨
21 13:00 12 10km以上 20 56 1003 弱いしゅう雨
21 12:00 12 10km以上 20 56 1003
21 11:00 南南東 10 10km以上 19 60 1004
21 10:00 12 10km以上 19 60 1005
21 09:00 14 10km以上 19 56 1005
21 08:00 15 10km以上 20 56 1005
21 07:45 11 10km以上 20 56 1005
20 20:00 14 10km以上 17 63 1012
20 19:00 13 10km以上 17 63 1012
20 18:39 12 10km以上 17 63 1012
20 18:00 15 5000m 18 60 1012 高い風塵
20 17:00 16 5000m 19 56 1011 高い風塵
20 16:20 17 2400m 20 49 1011 高い風塵
20 16:00 19 2000m 20 49 1011 高い風塵
20 15:00 19 1600m 21 43 1011 高い風塵
20 14:00 15 1600m 22 41 1012 高い風塵
20 13:00 16 3000m 23 41 1012 高い風塵
20 12:00 17 2500m 23 41 1013 高い風塵
20 11:00 15 1600m 23 41 1012 高い風塵
20 10:00 南南西 10 2000m 22 43 1013 高い風塵
20 09:00 南南西 10 3500m 22 38 1014 高い風塵
20 08:00 14 4000m 21 43 1014 高い風塵
20 07:45 12 4000m 21 43 1014 高い風塵
19 20:00 8 10km以上 17 59 1018
19 19:00 9 10km以上 18 56 1017
19 18:00 9 10km以上 20 49 1017
19 17:00 南南東 8 10km以上 23 41 1016
19 16:00 10 10km以上 24 38 1016
19 15:00 11 10km以上 26 34 1016
RJCM 210500Z 17024G45KT 9999 -SHRA FEW015 SCT060 BKN/// 20/12 Q1002
RJCM 210400Z 18024G36KT 9999 -SHRA FEW015 SCT040 BKN060 20/11 Q1003
RJCM 210300Z 18024KT 9999 FEW015 SCT030 BKN040 20/11 Q1003
RJCM 210200Z 16019KT 9999 FEW015 SCT030 BKN040 19/11 Q1004
RJCM 210100Z 18024KT 9999 FEW015 SCT030 BKN040 19/11 Q1005
RJCM 210000Z 18027KT 9999 FEW015 BKN040 BKN070 19/10 Q1005
RJCM 202300Z 18029KT 9999 FEW015 SCT040 BKN050 20/11 Q1005
RJCM 202245Z 17021G31KT 9999 FEW015 SCT040 BKN050 20/11 Q1005 RMK 1ST015 4CU040 6CU050 A2970
RJCM 201100Z 18027KT 9999 FEW020 BKN/// 17/10 Q1012
RJCM 201000Z 18025KT 9999 FEW020 BKN/// 17/10 Q1012
RJCM 200939Z 18024KT 9999 FEW020 BKN/// 17/10 Q1012 RMK 1CU020 A2989
RJCM 200900Z 18030KT 5000 BLDU FEW020 BKN/// 18/10 Q1012
RJCM 200800Z 17032G42KT 5000 BLDU FEW020 BKN/// 19/10 Q1011
RJCM 200720Z 18033G47KT 2400 BLDU FEW020 BKN/// 20/09 Q1011 RMK 1CU020 A2987
RJCM 200700Z 18036G47KT 2000 BLDU FEW020 BKN/// 20/09 Q1011
RJCM 200600Z 17036KT 1600 R18/1300VP1800D BLDU FEW020 BKN/// 21/08 Q1011
RJCM 200500Z 18029G40KT 1600 R18/1300VP1800D BLDU FEW020 BKN/// 22/08 Q1012 WS R18
RJCM 200400Z 18031G44KT 3000 BLDU FEW020 BKN/// 23/09 Q1012
RJCM 200300Z 18034KT 2500 BLDU FEW020 BKN/// 23/09 Q1013
RJCM 200200Z 19030G40KT 1600 R18/1300VP1800D BLDU FEW020 SCT030 BKN/// 23/09 Q1012
RJCM 200100Z 20019G30KT 180V240 2000 BLDU FEW020 BKN/// 22/09 Q1013
RJCM 200000Z 20019G31KT 180V240 3500 BLDU FEW020 SCT/// 22/07 Q1014
RJCM 192300Z 18027KT 4000 BLDU FEW020 SCT/// 21/08 Q1014
RJCM 192245Z 19024KT 4000 BLDU FEW020 SCT/// 21/08 Q1014 RMK 1CU020 A2995 9999N
RJCM 191100Z 19015KT 9999 FEW030 BKN/// 17/09 Q1018
RJCM 191000Z 18018KT 9999 FEW030 BKN/// 18/09 Q1017
RJCM 190900Z 18017KT 9999 FEW030 BKN/// 20/09 Q1017
RJCM 190800Z 16016KT 9999 FEW030 SCT/// 23/09 Q1016
RJCM 190700Z 17020KT 9999 FEW030 SCT/// 24/09 Q1016
RJCM 190600Z 17021KT 9999 FEW030 SCT/// 26/09 Q1016